sensor_id;sensor_type;location;lat;lon;timestamp;P1;durP1;ratioP1;P2;durP2;ratioP2
16113;SDS011;8161;-33.910;151.156;2022-09-24T00:01:36;5.50;;;2.08;;
16113;SDS011;8161;-33.910;151.156;2022-09-24T00:04:05;4.53;;;0.88;;
16113;SDS011;8161;-33.910;151.156;2022-09-24T00:06:39;5.72;;;1.30;;
16113;SDS011;8161;-33.910;151.156;2022-09-24T00:09:11;5.88;;;1.00;;
16113;SDS011;8161;-33.910;151.156;2022-09-24T00:11:41;5.78;;;1.58;;
16113;SDS011;8161;-33.910;151.156;2022-09-24T00:14:10;7.75;;;1.15;;
16113;SDS011;8161;-33.910;151.156;2022-09-24T00:16:38;4.35;;;1.05;;
16113;SDS011;8161;-33.910;151.156;2022-09-24T00:19:05;5.82;;;1.00;;
16113;SDS011;8161;-33.910;151.156;2022-09-24T00:21:34;9.32;;;1.25;;
16113;SDS011;8161;-33.910;151.156;2022-09-24T00:24:06;7.38;;;1.48;;
16113;SDS011;8161;-33.910;151.156;2022-09-24T00:26:57;4.00;;;1.25;;
16113;SDS011;8161;-33.910;151.156;2022-09-24T00:29:25;3.97;;;0.95;;
16113;SDS011;8161;-33.910;151.156;2022-09-24T00:31:52;2.85;;;0.73;;
16113;SDS011;8161;-33.910;151.156;2022-09-24T00:34:20;3.70;;;1.02;;
16113;SDS011;8161;-33.910;151.156;2022-09-24T00:36:47;4.68;;;1.25;;
16113;SDS011;8161;-33.910;151.156;2022-09-24T00:39:14;8.30;;;1.15;;
16113;SDS011;8161;-33.910;151.156;2022-09-24T00:41:42;7.47;;;0.98;;
16113;SDS011;8161;-33.910;151.156;2022-09-24T00:47:48;6.03;;;0.90;;
16113;SDS011;8161;-33.910;151.156;2022-09-24T00:50:12;4.43;;;0.98;;
16113;SDS011;8161;-33.910;151.156;2022-09-24T00:52:46;4.22;;;1.40;;
16113;SDS011;8161;-33.910;151.156;2022-09-24T00:55:26;5.38;;;1.02;;
16113;SDS011;8161;-33.910;151.156;2022-09-24T00:57:58;3.85;;;1.00;;
16113;SDS011;8161;-33.910;151.156;2022-09-24T01:00:29;5.45;;;1.10;;
16113;SDS011;8161;-33.910;151.156;2022-09-24T01:02:58;4.82;;;1.10;;
16113;SDS011;8161;-33.910;151.156;2022-09-24T01:05:28;2.63;;;0.65;;
16113;SDS011;8161;-33.910;151.156;2022-09-24T01:07:55;4.63;;;0.90;;
16113;SDS011;8161;-33.910;151.156;2022-09-24T01:21:54;1.67;;;0.50;;
16113;SDS011;8161;-33.910;151.156;2022-09-24T01:30:03;3.88;;;0.70;;
16113;SDS011;8161;-33.910;151.156;2022-09-24T01:35:23;1.17;;;0.43;;
16113;SDS011;8161;-33.910;151.156;2022-09-24T01:38:07;1.05;;;0.50;;
16113;SDS011;8161;-33.910;151.156;2022-09-24T01:40:40;2.13;;;0.60;;
16113;SDS011;8161;-33.910;151.156;2022-09-24T01:43:09;1.60;;;0.57;;
16113;SDS011;8161;-33.910;151.156;2022-09-24T01:45:37;1.20;;;0.40;;
16113;SDS011;8161;-33.910;151.156;2022-09-24T01:48:05;2.47;;;0.60;;
16113;SDS011;8161;-33.910;151.156;2022-09-24T01:50:37;1.48;;;0.40;;
16113;SDS011;8161;-33.910;151.156;2022-09-24T01:53:23;3.30;;;0.65;;
16113;SDS011;8161;-33.910;151.156;2022-09-24T01:56:06;4.55;;;0.93;;
16113;SDS011;8161;-33.910;151.156;2022-09-24T01:58:48;8.48;;;0.95;;
16113;SDS011;8161;-33.910;151.156;2022-09-24T02:01:33;3.35;;;0.80;;
16113;SDS011;8161;-33.910;151.156;2022-09-24T02:04:11;3.35;;;0.70;;
16113;SDS011;8161;-33.910;151.156;2022-09-24T02:06:43;3.45;;;0.65;;
16113;SDS011;8161;-33.910;151.156;2022-09-24T02:09:31;3.90;;;1.05;;
16113;SDS011;8161;-33.910;151.156;2022-09-24T02:12:07;3.20;;;0.73;;
16113;SDS011;8161;-33.910;151.156;2022-09-24T02:14:39;2.42;;;1.00;;
16113;SDS011;8161;-33.910;151.156;2022-09-24T02:17:16;2.58;;;0.80;;
16113;SDS011;8161;-33.910;151.156;2022-09-24T02:19:44;2.03;;;0.70;;
16113;SDS011;8161;-33.910;151.156;2022-09-24T02:22:14;2.72;;;0.82;;
16113;SDS011;8161;-33.910;151.156;2022-09-24T02:24:44;3.90;;;1.10;;
16113;SDS011;8161;-33.910;151.156;2022-09-24T02:27:16;3.78;;;0.70;;
16113;SDS011;8161;-33.910;151.156;2022-09-24T02:29:44;4.68;;;0.60;;
16113;SDS011;8161;-33.910;151.156;2022-09-24T02:32:15;8.45;;;1.50;;
16113;SDS011;8161;-33.910;151.156;2022-09-24T02:34:46;3.00;;;0.65;;
16113;SDS011;8161;-33.910;151.156;2022-09-24T02:37:16;4.03;;;0.93;;
16113;SDS011;8161;-33.910;151.156;2022-09-24T02:39:44;3.70;;;1.00;;
16113;SDS011;8161;-33.910;151.156;2022-09-24T02:42:12;5.65;;;0.77;;
16113;SDS011;8161;-33.910;151.156;2022-09-24T02:44:41;3.17;;;0.95;;
16113;SDS011;8161;-33.910;151.156;2022-09-24T02:47:08;2.75;;;1.00;;
16113;SDS011;8161;-33.910;151.156;2022-09-24T02:49:36;4.57;;;0.95;;
16113;SDS011;8161;-33.910;151.156;2022-09-24T02:52:03;3.60;;;1.02;;
16113;SDS011;8161;-33.910;151.156;2022-09-24T02:54:31;5.00;;;0.90;;
16113;SDS011;8161;-33.910;151.156;2022-09-24T02:56:58;3.53;;;0.95;;
16113;SDS011;8161;-33.910;151.156;2022-09-24T02:59:26;3.63;;;1.00;;
16113;SDS011;8161;-33.910;151.156;2022-09-24T03:01:53;2.47;;;0.82;;
16113;SDS011;8161;-33.910;151.156;2022-09-24T03:04:20;6.03;;;1.20;;
16113;SDS011;8161;-33.910;151.156;2022-09-24T03:06:47;3.47;;;1.05;;
16113;SDS011;8161;-33.910;151.156;2022-09-24T03:09:14;6.13;;;1.00;;
16113;SDS011;8161;-33.910;151.156;2022-09-24T03:11:42;6.75;;;1.10;;
16113;SDS011;8161;-33.910;151.156;2022-09-24T03:14:09;4.65;;;1.60;;
16113;SDS011;8161;-33.910;151.156;2022-09-24T03:16:36;3.08;;;1.65;;
16113;SDS011;8161;-33.910;151.156;2022-09-24T03:19:04;1.33;;;0.82;;
16113;SDS011;8161;-33.910;151.156;2022-09-24T03:21:32;2.78;;;1.15;;
16113;SDS011;8161;-33.910;151.156;2022-09-24T03:23:59;4.55;;;1.58;;
16113;SDS011;8161;-33.910;151.156;2022-09-24T03:26:28;3.72;;;0.95;;
16113;SDS011;8161;-33.910;151.156;2022-09-24T03:28:56;10.45;;;1.02;;
16113;SDS011;8161;-33.910;151.156;2022-09-24T03:31:23;3.97;;;0.88;;
16113;SDS011;8161;-33.910;151.156;2022-09-24T03:33:50;3.67;;;0.90;;
16113;SDS011;8161;-33.910;151.156;2022-09-24T03:36:18;2.80;;;0.80;;
16113;SDS011;8161;-33.910;151.156;2022-09-24T03:38:53;4.95;;;1.13;;
16113;SDS011;8161;-33.910;151.156;2022-09-24T03:41:23;4.00;;;0.98;;
16113;SDS011;8161;-33.910;151.156;2022-09-24T03:43:52;3.35;;;1.15;;
16113;SDS011;8161;-33.910;151.156;2022-09-24T03:46:19;4.65;;;1.17;;
16113;SDS011;8161;-33.910;151.156;2022-09-24T03:48:49;4.55;;;1.10;;
16113;SDS011;8161;-33.910;151.156;2022-09-24T03:51:17;4.28;;;1.27;;
16113;SDS011;8161;-33.910;151.156;2022-09-24T03:53:45;4.35;;;0.70;;
16113;SDS011;8161;-33.910;151.156;2022-09-24T03:56:13;4.70;;;1.02;;
16113;SDS011;8161;-33.910;151.156;2022-09-24T03:58:40;1.77;;;0.90;;
16113;SDS011;8161;-33.910;151.156;2022-09-24T04:01:12;3.15;;;1.23;;
16113;SDS011;8161;-33.910;151.156;2022-09-24T04:03:43;3.90;;;0.85;;
16113;SDS011;8161;-33.910;151.156;2022-09-24T04:06:11;4.53;;;1.20;;
16113;SDS011;8161;-33.910;151.156;2022-09-24T04:08:38;3.95;;;1.10;;
16113;SDS011;8161;-33.910;151.156;2022-09-24T04:11:06;7.32;;;1.38;;
16113;SDS011;8161;-33.910;151.156;2022-09-24T04:13:33;9.40;;;1.65;;
16113;SDS011;8161;-33.910;151.156;2022-09-24T04:16:01;3.53;;;1.33;;
16113;SDS011;8161;-33.910;151.156;2022-09-24T04:18:29;5.00;;;1.42;;
16113;SDS011;8161;-33.910;151.156;2022-09-24T04:20:57;5.70;;;1.55;;
16113;SDS011;8161;-33.910;151.156;2022-09-24T04:23:25;3.13;;;1.00;;
16113;SDS011;8161;-33.910;151.156;2022-09-24T04:25:56;6.68;;;1.30;;
16113;SDS011;8161;-33.910;151.156;2022-09-24T04:28:27;5.22;;;1.20;;
16113;SDS011;8161;-33.910;151.156;2022-09-24T04:30:55;5.22;;;1.27;;
16113;SDS011;8161;-33.910;151.156;2022-09-24T04:33:23;5.20;;;1.23;;
16113;SDS011;8161;-33.910;151.156;2022-09-24T04:35:50;8.70;;;1.35;;
16113;SDS011;8161;-33.910;151.156;2022-09-24T04:38:17;4.75;;;1.23;;
16113;SDS011;8161;-33.910;151.156;2022-09-24T04:40:46;3.20;;;1.10;;
16113;SDS011;8161;-33.910;151.156;2022-09-24T04:43:13;6.70;;;1.48;;
16113;SDS011;8161;-33.910;151.156;2022-09-24T04:45:41;6.20;;;1.33;;
16113;SDS011;8161;-33.910;151.156;2022-09-24T04:48:09;5.82;;;1.42;;
16113;SDS011;8161;-33.910;151.156;2022-09-24T04:50:37;6.03;;;1.77;;
16113;SDS011;8161;-33.910;151.156;2022-09-24T04:53:07;1.92;;;1.00;;
16113;SDS011;8161;-33.910;151.156;2022-09-24T04:55:35;5.80;;;1.15;;
16113;SDS011;8161;-33.910;151.156;2022-09-24T04:58:02;3.88;;;1.00;;
16113;SDS011;8161;-33.910;151.156;2022-09-24T05:00:29;3.13;;;1.33;;
16113;SDS011;8161;-33.910;151.156;2022-09-24T05:02:58;3.75;;;0.85;;
16113;SDS011;8161;-33.910;151.156;2022-09-24T05:05:30;6.47;;;1.52;;
16113;SDS011;8161;-33.910;151.156;2022-09-24T05:07:58;2.75;;;1.00;;
16113;SDS011;8161;-33.910;151.156;2022-09-24T05:10:27;2.83;;;1.30;;
16113;SDS011;8161;-33.910;151.156;2022-09-24T05:12:59;3.67;;;1.25;;
16113;SDS011;8161;-33.910;151.156;2022-09-24T05:15:26;8.82;;;3.58;;
16113;SDS011;8161;-33.910;151.156;2022-09-24T05:17:54;5.30;;;1.67;;
16113;SDS011;8161;-33.910;151.156;2022-09-24T05:20:21;4.00;;;1.20;;
16113;SDS011;8161;-33.910;151.156;2022-09-24T05:22:48;3.75;;;1.58;;
16113;SDS011;8161;-33.910;151.156;2022-09-24T05:25:17;3.33;;;1.63;;
16113;SDS011;8161;-33.910;151.156;2022-09-24T05:30:14;6.15;;;1.35;;
16113;SDS011;8161;-33.910;151.156;2022-09-24T05:32:42;5.75;;;1.10;;
16113;SDS011;8161;-33.910;151.156;2022-09-24T05:35:10;3.80;;;1.10;;
16113;SDS011;8161;-33.910;151.156;2022-09-24T05:37:38;3.50;;;1.10;;
16113;SDS011;8161;-33.910;151.156;2022-09-24T05:40:06;4.88;;;1.40;;
16113;SDS011;8161;-33.910;151.156;2022-09-24T05:42:46;4.10;;;1.10;;
16113;SDS011;8161;-33.910;151.156;2022-09-24T05:45:14;5.93;;;1.63;;
16113;SDS011;8161;-33.910;151.156;2022-09-24T05:47:43;5.45;;;1.30;;
16113;SDS011;8161;-33.910;151.156;2022-09-24T05:50:15;4.50;;;1.38;;
16113;SDS011;8161;-33.910;151.156;2022-09-24T05:52:42;4.38;;;1.55;;
16113;SDS011;8161;-33.910;151.156;2022-09-24T05:55:09;5.45;;;1.75;;
16113;SDS011;8161;-33.910;151.156;2022-09-24T05:57:37;5.75;;;2.25;;
16113;SDS011;8161;-33.910;151.156;2022-09-24T06:00:05;5.53;;;2.22;;
16113;SDS011;8161;-33.910;151.156;2022-09-24T06:02:33;6.50;;;2.22;;
16113;SDS011;8161;-33.910;151.156;2022-09-24T06:05:00;9.40;;;2.40;;
16113;SDS011;8161;-33.910;151.156;2022-09-24T06:07:27;6.45;;;1.38;;
16113;SDS011;8161;-33.910;151.156;2022-09-24T06:09:55;9.57;;;1.75;;
16113;SDS011;8161;-33.910;151.156;2022-09-24T06:12:25;5.90;;;2.03;;
16113;SDS011;8161;-33.910;151.156;2022-09-24T06:14:53;10.20;;;3.30;;
16113;SDS011;8161;-33.910;151.156;2022-09-24T06:17:20;6.38;;;1.90;;
16113;SDS011;8161;-33.910;151.156;2022-09-24T06:19:48;4.75;;;1.85;;
16113;SDS011;8161;-33.910;151.156;2022-09-24T06:22:15;6.18;;;1.60;;
16113;SDS011;8161;-33.910;151.156;2022-09-24T06:24:42;4.95;;;1.60;;
16113;SDS011;8161;-33.910;151.156;2022-09-24T06:27:10;4.10;;;1.48;;
16113;SDS011;8161;-33.910;151.156;2022-09-24T06:29:37;4.07;;;1.33;;
16113;SDS011;8161;-33.910;151.156;2022-09-24T06:32:04;3.40;;;1.60;;
16113;SDS011;8161;-33.910;151.156;2022-09-24T06:34:32;3.22;;;1.52;;
16113;SDS011;8161;-33.910;151.156;2022-09-24T06:37:00;9.27;;;1.48;;
16113;SDS011;8161;-33.910;151.156;2022-09-24T06:39:27;5.47;;;1.25;;
16113;SDS011;8161;-33.910;151.156;2022-09-24T06:41:54;3.83;;;1.40;;
16113;SDS011;8161;-33.910;151.156;2022-09-24T06:44:22;3.08;;;1.38;;
16113;SDS011;8161;-33.910;151.156;2022-09-24T06:46:52;6.95;;;1.35;;
16113;SDS011;8161;-33.910;151.156;2022-09-24T06:49:19;7.13;;;1.48;;
16113;SDS011;8161;-33.910;151.156;2022-09-24T06:51:46;5.40;;;1.52;;
16113;SDS011;8161;-33.910;151.156;2022-09-24T06:54:13;4.47;;;1.65;;
16113;SDS011;8161;-33.910;151.156;2022-09-24T06:56:41;4.80;;;2.00;;
16113;SDS011;8161;-33.910;151.156;2022-09-24T06:59:08;6.93;;;1.73;;
16113;SDS011;8161;-33.910;151.156;2022-09-24T07:01:35;9.48;;;2.78;;
16113;SDS011;8161;-33.910;151.156;2022-09-24T07:04:02;8.98;;;2.00;;
16113;SDS011;8161;-33.910;151.156;2022-09-24T07:06:30;5.30;;;1.90;;
16113;SDS011;8161;-33.910;151.156;2022-09-24T07:09:18;7.55;;;1.80;;
16113;SDS011;8161;-33.910;151.156;2022-09-24T07:11:46;4.45;;;2.00;;
16113;SDS011;8161;-33.910;151.156;2022-09-24T07:14:13;4.00;;;2.35;;
16113;SDS011;8161;-33.910;151.156;2022-09-24T07:16:41;12.23;;;2.83;;
16113;SDS011;8161;-33.910;151.156;2022-09-24T07:19:08;6.32;;;2.70;;
16113;SDS011;8161;-33.910;151.156;2022-09-24T07:21:35;7.45;;;2.30;;
16113;SDS011;8161;-33.910;151.156;2022-09-24T07:24:03;7.35;;;2.10;;
16113;SDS011;8161;-33.910;151.156;2022-09-24T07:26:30;5.32;;;2.40;;
16113;SDS011;8161;-33.910;151.156;2022-09-24T07:28:57;8.07;;;2.40;;
16113;SDS011;8161;-33.910;151.156;2022-09-24T07:31:25;4.43;;;2.50;;
16113;SDS011;8161;-33.910;151.156;2022-09-24T07:33:52;7.55;;;2.15;;
16113;SDS011;8161;-33.910;151.156;2022-09-24T07:36:19;4.25;;;2.08;;
16113;SDS011;8161;-33.910;151.156;2022-09-24T07:38:47;9.35;;;2.22;;
16113;SDS011;8161;-33.910;151.156;2022-09-24T07:41:14;9.70;;;2.72;;
16113;SDS011;8161;-33.910;151.156;2022-09-24T07:43:42;10.00;;;2.72;;
16113;SDS011;8161;-33.910;151.156;2022-09-24T07:46:10;16.85;;;3.35;;
16113;SDS011;8161;-33.910;151.156;2022-09-24T07:48:37;8.85;;;2.42;;
16113;SDS011;8161;-33.910;151.156;2022-09-24T07:51:08;9.13;;;2.38;;
16113;SDS011;8161;-33.910;151.156;2022-09-24T07:53:35;6.28;;;1.98;;
16113;SDS011;8161;-33.910;151.156;2022-09-24T07:56:03;9.77;;;2.47;;
16113;SDS011;8161;-33.910;151.156;2022-09-24T07:58:30;7.50;;;2.67;;
16113;SDS011;8161;-33.910;151.156;2022-09-24T08:00:58;6.50;;;2.72;;
16113;SDS011;8161;-33.910;151.156;2022-09-24T08:03:26;6.47;;;2.28;;
16113;SDS011;8161;-33.910;151.156;2022-09-24T08:05:53;9.15;;;2.60;;
16113;SDS011;8161;-33.910;151.156;2022-09-24T08:08:24;9.40;;;2.55;;
16113;SDS011;8161;-33.910;151.156;2022-09-24T08:10:52;6.13;;;2.90;;
16113;SDS011;8161;-33.910;151.156;2022-09-24T08:13:19;10.25;;;3.30;;
16113;SDS011;8161;-33.910;151.156;2022-09-24T08:15:56;5.38;;;3.00;;
16113;SDS011;8161;-33.910;151.156;2022-09-24T08:18:24;6.85;;;3.03;;
16113;SDS011;8161;-33.910;151.156;2022-09-24T08:20:54;7.38;;;3.40;;
16113;SDS011;8161;-33.910;151.156;2022-09-24T08:23:21;12.35;;;4.20;;
16113;SDS011;8161;-33.910;151.156;2022-09-24T08:25:48;10.93;;;4.43;;
16113;SDS011;8161;-33.910;151.156;2022-09-24T08:28:15;8.40;;;4.32;;
16113;SDS011;8161;-33.910;151.156;2022-09-24T08:30:44;11.50;;;4.65;;
16113;SDS011;8161;-33.910;151.156;2022-09-24T08:33:11;14.38;;;4.03;;
16113;SDS011;8161;-33.910;151.156;2022-09-24T08:35:39;10.95;;;3.67;;
16113;SDS011;8161;-33.910;151.156;2022-09-24T08:38:07;5.38;;;3.20;;
16113;SDS011;8161;-33.910;151.156;2022-09-24T08:40:55;9.75;;;3.75;;
16113;SDS011;8161;-33.910;151.156;2022-09-24T08:43:43;8.48;;;3.63;;
16113;SDS011;8161;-33.910;151.156;2022-09-24T08:46:33;11.18;;;3.28;;
16113;SDS011;8161;-33.910;151.156;2022-09-24T08:49:22;13.20;;;3.65;;
16113;SDS011;8161;-33.910;151.156;2022-09-24T08:52:06;10.25;;;3.78;;
16113;SDS011;8161;-33.910;151.156;2022-09-24T08:54:53;12.40;;;4.13;;
16113;SDS011;8161;-33.910;151.156;2022-09-24T08:57:26;14.05;;;4.10;;
16113;SDS011;8161;-33.910;151.156;2022-09-24T09:00:12;10.82;;;3.85;;
16113;SDS011;8161;-33.910;151.156;2022-09-24T09:02:46;7.63;;;2.80;;
16113;SDS011;8161;-33.910;151.156;2022-09-24T09:05:43;9.27;;;2.88;;
16113;SDS011;8161;-33.910;151.156;2022-09-24T09:08:22;8.07;;;2.92;;
16113;SDS011;8161;-33.910;151.156;2022-09-24T09:11:20;10.55;;;3.38;;
16113;SDS011;8161;-33.910;151.156;2022-09-24T09:16:43;7.97;;;2.85;;
16113;SDS011;8161;-33.910;151.156;2022-09-24T09:19:15;9.43;;;3.05;;
16113;SDS011;8161;-33.910;151.156;2022-09-24T09:21:51;10.30;;;3.38;;
16113;SDS011;8161;-33.910;151.156;2022-09-24T09:24:38;10.35;;;3.38;;
16113;SDS011;8161;-33.910;151.156;2022-09-24T09:27:13;7.47;;;3.88;;
16113;SDS011;8161;-33.910;151.156;2022-09-24T09:29:49;11.13;;;3.63;;
16113;SDS011;8161;-33.910;151.156;2022-09-24T09:32:31;7.68;;;3.63;;
16113;SDS011;8161;-33.910;151.156;2022-09-24T09:42:48;12.90;;;3.75;;
16113;SDS011;8161;-33.910;151.156;2022-09-24T09:45:29;7.70;;;3.60;;
16113;SDS011;8161;-33.910;151.156;2022-09-24T09:48:04;8.88;;;3.75;;
16113;SDS011;8161;-33.910;151.156;2022-09-24T09:50:44;6.40;;;3.35;;
16113;SDS011;8161;-33.910;151.156;2022-09-24T09:53:21;6.68;;;3.38;;
16113;SDS011;8161;-33.910;151.156;2022-09-24T09:55:54;6.97;;;3.00;;
16113;SDS011;8161;-33.910;151.156;2022-09-24T09:58:22;13.65;;;4.13;;
16113;SDS011;8161;-33.910;151.156;2022-09-24T10:00:52;6.55;;;3.17;;
16113;SDS011;8161;-33.910;151.156;2022-09-24T10:03:31;7.78;;;3.30;;
16113;SDS011;8161;-33.910;151.156;2022-09-24T10:06:27;10.25;;;3.17;;
16113;SDS011;8161;-33.910;151.156;2022-09-24T10:09:10;9.60;;;4.15;;
16113;SDS011;8161;-33.910;151.156;2022-09-24T10:11:44;8.70;;;3.25;;
16113;SDS011;8161;-33.910;151.156;2022-09-24T10:14:12;9.30;;;3.70;;
16113;SDS011;8161;-33.910;151.156;2022-09-24T10:16:44;6.57;;;3.65;;
16113;SDS011;8161;-33.910;151.156;2022-09-24T10:19:25;7.95;;;3.20;;
16113;SDS011;8161;-33.910;151.156;2022-09-24T10:21:55;6.97;;;3.45;;
16113;SDS011;8161;-33.910;151.156;2022-09-24T10:24:24;10.98;;;3.65;;
16113;SDS011;8161;-33.910;151.156;2022-09-24T10:26:53;8.93;;;3.60;;
16113;SDS011;8161;-33.910;151.156;2022-09-24T10:29:21;6.85;;;3.55;;
16113;SDS011;8161;-33.910;151.156;2022-09-24T10:32:05;9.10;;;3.55;;
16113;SDS011;8161;-33.910;151.156;2022-09-24T10:34:39;9.57;;;4.20;;
16113;SDS011;8161;-33.910;151.156;2022-09-24T10:37:14;12.32;;;3.92;;
16113;SDS011;8161;-33.910;151.156;2022-09-24T10:39:43;9.23;;;4.28;;
16113;SDS011;8161;-33.910;151.156;2022-09-24T10:44:53;13.38;;;5.85;;
16113;SDS011;8161;-33.910;151.156;2022-09-24T10:47:25;9.95;;;4.80;;
16113;SDS011;8161;-33.910;151.156;2022-09-24T10:53:05;9.38;;;4.93;;
16113;SDS011;8161;-33.910;151.156;2022-09-24T11:01:08;8.63;;;4.72;;
16113;SDS011;8161;-33.910;151.156;2022-09-24T11:25:17;9.52;;;4.40;;
16113;SDS011;8161;-33.910;151.156;2022-09-24T11:28:01;7.18;;;3.63;;
16113;SDS011;8161;-33.910;151.156;2022-09-24T11:30:37;12.40;;;4.18;;
16113;SDS011;8161;-33.910;151.156;2022-09-24T11:33:24;6.32;;;3.90;;
16113;SDS011;8161;-33.910;151.156;2022-09-24T11:41:19;9.52;;;3.45;;
16113;SDS011;8161;-33.910;151.156;2022-09-24T11:45:03;9.40;;;3.08;;
16113;SDS011;8161;-33.910;151.156;2022-09-24T11:55:29;11.43;;;5.57;;
16113;SDS011;8161;-33.910;151.156;2022-09-24T12:00:39;9.45;;;5.40;;
16113;SDS011;8161;-33.910;151.156;2022-09-24T12:03:21;8.38;;;4.85;;
16113;SDS011;8161;-33.910;151.156;2022-09-24T12:06:10;12.15;;;4.85;;
16113;SDS011;8161;-33.910;151.156;2022-09-24T12:08:54;9.48;;;5.13;;
16113;SDS011;8161;-33.910;151.156;2022-09-24T12:11:31;11.25;;;5.40;;
16113;SDS011;8161;-33.910;151.156;2022-09-24T12:17:16;9.32;;;5.45;;
16113;SDS011;8161;-33.910;151.156;2022-09-24T12:22:31;11.30;;;5.53;;
16113;SDS011;8161;-33.910;151.156;2022-09-24T12:25:00;10.18;;;5.82;;
16113;SDS011;8161;-33.910;151.156;2022-09-24T12:27:34;12.52;;;5.80;;
16113;SDS011;8161;-33.910;151.156;2022-09-24T12:32:58;14.73;;;6.97;;
16113;SDS011;8161;-33.910;151.156;2022-09-24T12:38:16;12.63;;;5.88;;
16113;SDS011;8161;-33.910;151.156;2022-09-24T12:43:52;10.80;;;5.70;;
16113;SDS011;8161;-33.910;151.156;2022-09-24T12:51:52;11.35;;;6.85;;
16113;SDS011;8161;-33.910;151.156;2022-09-24T12:54:56;12.98;;;6.65;;
16113;SDS011;8161;-33.910;151.156;2022-09-24T12:57:39;10.55;;;6.90;;
16113;SDS011;8161;-33.910;151.156;2022-09-24T13:02:58;11.27;;;6.75;;
16113;SDS011;8161;-33.910;151.156;2022-09-24T13:13:25;14.88;;;6.97;;
16113;SDS011;8161;-33.910;151.156;2022-09-24T13:16:03;13.25;;;7.38;;
16113;SDS011;8161;-33.910;151.156;2022-09-24T13:18:41;15.48;;;7.57;;
16113;SDS011;8161;-33.910;151.156;2022-09-24T13:21:17;11.50;;;7.38;;
16113;SDS011;8161;-33.910;151.156;2022-09-24T13:23:49;12.82;;;8.45;;
16113;SDS011;8161;-33.910;151.156;2022-09-24T13:28:51;13.15;;;9.02;;
16113;SDS011;8161;-33.910;151.156;2022-09-24T13:34:14;15.85;;;10.02;;
16113;SDS011;8161;-33.910;151.156;2022-09-24T13:37:01;15.32;;;10.60;;
16113;SDS011;8161;-33.910;151.156;2022-09-24T13:39:32;15.15;;;9.77;;
16113;SDS011;8161;-33.910;151.156;2022-09-24T13:42:12;20.27;;;10.45;;
16113;SDS011;8161;-33.910;151.156;2022-09-24T13:44:58;14.32;;;10.25;;
16113;SDS011;8161;-33.910;151.156;2022-09-24T13:47:47;15.77;;;10.48;;
16113;SDS011;8161;-33.910;151.156;2022-09-24T13:50:29;17.60;;;10.77;;
16113;SDS011;8161;-33.910;151.156;2022-09-24T13:53:06;15.20;;;9.45;;
16113;SDS011;8161;-33.910;151.156;2022-09-24T13:55:48;14.70;;;9.32;;
16113;SDS011;8161;-33.910;151.156;2022-09-24T13:58:27;13.90;;;8.63;;
16113;SDS011;8161;-33.910;151.156;2022-09-24T14:00:56;12.30;;;7.60;;
16113;SDS011;8161;-33.910;151.156;2022-09-24T14:03:30;12.93;;;7.82;;
16113;SDS011;8161;-33.910;151.156;2022-09-24T14:06:17;14.18;;;6.43;;
16113;SDS011;8161;-33.910;151.156;2022-09-24T14:08:58;9.85;;;6.63;;
16113;SDS011;8161;-33.910;151.156;2022-09-24T14:11:25;12.18;;;6.38;;
16113;SDS011;8161;-33.910;151.156;2022-09-24T14:13:53;9.93;;;5.88;;
16113;SDS011;8161;-33.910;151.156;2022-09-24T14:16:22;10.57;;;6.15;;
16113;SDS011;8161;-33.910;151.156;2022-09-24T14:19:00;9.25;;;5.60;;
16113;SDS011;8161;-33.910;151.156;2022-09-24T14:21:39;11.35;;;6.35;;
16113;SDS011;8161;-33.910;151.156;2022-09-24T14:24:23;7.75;;;5.45;;
16113;SDS011;8161;-33.910;151.156;2022-09-24T14:27:14;11.10;;;5.50;;
16113;SDS011;8161;-33.910;151.156;2022-09-24T14:35:01;11.35;;;6.22;;
16113;SDS011;8161;-33.910;151.156;2022-09-24T14:37:38;12.80;;;6.32;;
16113;SDS011;8161;-33.910;151.156;2022-09-24T14:40:14;10.30;;;5.57;;
16113;SDS011;8161;-33.910;151.156;2022-09-24T14:42:47;12.40;;;6.53;;
16113;SDS011;8161;-33.910;151.156;2022-09-24T14:45:22;12.35;;;5.57;;
16113;SDS011;8161;-33.910;151.156;2022-09-24T14:50:56;11.68;;;7.20;;
16113;SDS011;8161;-33.910;151.156;2022-09-24T14:53:25;8.85;;;5.90;;
16113;SDS011;8161;-33.910;151.156;2022-09-24T14:56:16;8.52;;;5.93;;
16113;SDS011;8161;-33.910;151.156;2022-09-24T14:58:45;8.32;;;5.68;;
16113;SDS011;8161;-33.910;151.156;2022-09-24T15:01:17;13.13;;;6.22;;
16113;SDS011;8161;-33.910;151.156;2022-09-24T15:03:55;10.43;;;5.72;;
16113;SDS011;8161;-33.910;151.156;2022-09-24T15:06:26;10.75;;;6.00;;
16113;SDS011;8161;-33.910;151.156;2022-09-24T15:08:59;10.43;;;5.53;;
16113;SDS011;8161;-33.910;151.156;2022-09-24T15:11:30;9.68;;;6.30;;
16113;SDS011;8161;-33.910;151.156;2022-09-24T15:16:45;9.77;;;6.40;;
16113;SDS011;8161;-33.910;151.156;2022-09-24T15:19:13;13.15;;;6.65;;
16113;SDS011;8161;-33.910;151.156;2022-09-24T15:21:52;8.40;;;6.47;;
16113;SDS011;8161;-33.910;151.156;2022-09-24T15:24:23;11.00;;;5.93;;
16113;SDS011;8161;-33.910;151.156;2022-09-24T15:29:28;12.25;;;6.47;;
16113;SDS011;8161;-33.910;151.156;2022-09-24T15:31:56;11.20;;;6.35;;
16113;SDS011;8161;-33.910;151.156;2022-09-24T15:34:23;11.20;;;6.32;;
16113;SDS011;8161;-33.910;151.156;2022-09-24T15:36:53;13.35;;;8.07;;
16113;SDS011;8161;-33.910;151.156;2022-09-24T15:39:25;13.43;;;7.75;;
16113;SDS011;8161;-33.910;151.156;2022-09-24T15:41:53;11.38;;;7.60;;
16113;SDS011;8161;-33.910;151.156;2022-09-24T15:44:24;11.20;;;8.48;;
16113;SDS011;8161;-33.910;151.156;2022-09-24T15:46:51;10.32;;;8.10;;
16113;SDS011;8161;-33.910;151.156;2022-09-24T15:49:19;14.50;;;7.97;;
16113;SDS011;8161;-33.910;151.156;2022-09-24T15:51:59;15.35;;;8.00;;
16113;SDS011;8161;-33.910;151.156;2022-09-24T15:54:31;15.52;;;7.82;;
16113;SDS011;8161;-33.910;151.156;2022-09-24T15:56:58;12.48;;;7.53;;
16113;SDS011;8161;-33.910;151.156;2022-09-24T15:59:25;13.77;;;6.93;;
16113;SDS011;8161;-33.910;151.156;2022-09-24T16:01:53;12.25;;;7.68;;
16113;SDS011;8161;-33.910;151.156;2022-09-24T16:04:25;13.95;;;7.25;;
16113;SDS011;8161;-33.910;151.156;2022-09-24T16:06:54;12.10;;;7.22;;
16113;SDS011;8161;-33.910;151.156;2022-09-24T16:09:21;12.02;;;6.97;;
16113;SDS011;8161;-33.910;151.156;2022-09-24T16:11:48;12.20;;;7.22;;
16113;SDS011;8161;-33.910;151.156;2022-09-24T16:14:15;11.68;;;9.00;;
16113;SDS011;8161;-33.910;151.156;2022-09-24T16:16:43;17.10;;;10.90;;
16113;SDS011;8161;-33.910;151.156;2022-09-24T16:19:10;13.73;;;10.52;;
16113;SDS011;8161;-33.910;151.156;2022-09-24T16:21:37;17.05;;;10.60;;
16113;SDS011;8161;-33.910;151.156;2022-09-24T16:24:04;14.27;;;10.32;;
16113;SDS011;8161;-33.910;151.156;2022-09-24T16:26:31;15.80;;;9.82;;
16113;SDS011;8161;-33.910;151.156;2022-09-24T16:29:03;16.10;;;10.63;;
16113;SDS011;8161;-33.910;151.156;2022-09-24T16:31:31;15.05;;;10.75;;
16113;SDS011;8161;-33.910;151.156;2022-09-24T16:33:58;15.48;;;10.80;;
16113;SDS011;8161;-33.910;151.156;2022-09-24T16:36:25;17.55;;;11.30;;
16113;SDS011;8161;-33.910;151.156;2022-09-24T16:38:53;13.45;;;9.38;;
16113;SDS011;8161;-33.910;151.156;2022-09-24T16:41:20;16.88;;;10.50;;
16113;SDS011;8161;-33.910;151.156;2022-09-24T16:43:47;15.23;;;10.25;;
16113;SDS011;8161;-33.910;151.156;2022-09-24T16:46:14;14.40;;;10.90;;
16113;SDS011;8161;-33.910;151.156;2022-09-24T16:48:41;14.45;;;10.65;;
16113;SDS011;8161;-33.910;151.156;2022-09-24T16:51:09;18.80;;;11.77;;
16113;SDS011;8161;-33.910;151.156;2022-09-24T16:53:37;17.23;;;11.98;;
16113;SDS011;8161;-33.910;151.156;2022-09-24T16:56:11;18.27;;;12.63;;
16113;SDS011;8161;-33.910;151.156;2022-09-24T16:58:43;23.80;;;13.50;;